Portada
METAR-TAF:

METAR-TAF

Aeroports :

Gibraltar, Gibraltar

latitud: 36-09N, longitud: 005-21W, altitud: 5 m

Observació

L'informe es va fer fa 37 minuts, a les 12:50 UTC
Vent 21 kt del Sud
Temperatura 27°C
Humitat 34%
Pressió 1015 hPa
Visibilitat 10 km o més
sense núvols per sota de 1500 mi sense presència de cumulonimbus.

METAR: LXGB 191250Z 19021KT CAVOK 27/10 Q1015 NOSIG

Hora: 15:27 (13:27 UTC)

Pronòstic

L'informe es va fer fa 2 hores i 46 minuts, a les 10:41 UTC
Pronòstic vàlid del 19 a les 12 UTC al 19 a les 21 UTC
Vent 13 kt del Sud
Visibilitat 10 km o més
sense núvols per sota de 1500 mi sense presència de cumulonimbus.
Probabilitat 30% :
Temporalment
l' 19 a les 12 UTC al 19 a les 21 UTC
Visibilitat: 7000 m
calitja
Evolucionant progressivament
l' 19 a les 17 UTC al 19 a les 19 UTC
Vent 6 kt del Oest/Sud-Oest

TAF: LXGB 191041Z 1912/1921 19013KT CAVOK 520001 PROB30 TEMPO 1912/1921 7000 HZ NSC BECMG 1917/1919 25006KT 50////

Observacions i pronòstics meteorològics de més de 4000 aeroports (METAR i TAF).

Les estacions disponibles són els punts grocs i vermells al mapa.

Posi el ratolí al punt desitjat per veure el nom de l'estació.

Feu clic per veure les observacions i els pronòstics meteorològics.

Per canviar el mapa: feu clic els botons verds amb una creu de color negre per apropar; al botó verd amb un guió per allunyar la imatge; o en les fletxes verdes per a mapes adjacents.


METAR-TAF: